Mostly Cloudy Current Weather (METAR) For London Heathrow Airport

All times on the weather descriptions are local

Observed at 22:50 - (4 mins ago)

Mostly Cloudy

7°C

Mostly Cloudy
Clouds: Broken Clouds at 2,700ft
Wind: 230° at 10 knots
Visibility: Greater than 10km
QNH: 1021
Dew Point: 3°C
Runway in Use: Landing: Runway , Take-Off: Runway

Sunrise Today: 07:44
Sunset Today: 16:44

Forecast Weather (TAF) For London Heathrow Airport

Issued at 00:00 - (3 days 1 hr ago)


Runway in Use: Likely Runways 27L/R

Forecast valid until 00:00 on Saturday

METAR/TAF RAW METAR / TAF

EGLL 272250Z 23010KT 9999 BKN027 07/03 Q1021 NOSIG

Weather Widget

Put weather from any of our airports on your website with our weather widget.

Find Another Search

Airport Search


Please Wait Please Wait - Loading
Close
Close

Login

Username:

Password:

Remember Me:

Remember me on this computer

Forgotten your password? Get a reset password sent to your registered e-mail address

Close

User Private Message

Subject:

Message: